Time;durP1;ratioP1;P1;durP2;ratioP2;P2;SDS_P1;SDS_P2;PMS_P1;PMS_P2;Temp;Humidity;BMP_temperature;BMP_pressure;BME280_temperature;BME280_humidity;BME280_pressure;Samples;Min_cycle;Max_cycle;Signal;HPM_P1;HPM_P2
2022/12/09 00:00:05;;;;;;;18.35;8.70;;;;;;;-4.36;100.00;96282.16;5043261;28;20095;-58
2022/12/09 00:02:32;;;;;;;15.25;7.70;;;;;;;-4.59;100.00;96269.06;5032516;28;20794;-60
2022/12/09 00:04:59;;;;;;;14.63;8.00;;;;;;;-4.68;100.00;96268.34;5048432;28;20455;-60
2022/12/09 00:07:26;;;;;;;14.98;8.18;;;;;;;-4.75;100.00;96264.78;5048999;28;20048;-60
2022/12/09 00:09:52;;;;;;;19.13;8.68;;;;;;;-4.83;100.00;96271.00;5048419;28;20064;-59
2022/12/09 00:12:19;;;;;;;19.77;9.32;;;;;;;-4.93;100.00;96259.84;5048520;28;20049;-58
2022/12/09 00:14:45;;;;;;;18.90;8.20;;;;;;;-4.86;100.00;96263.41;5048438;28;20393;-60
2022/12/09 00:17:12;;;;;;;17.20;8.57;;;;;;;-4.77;100.00;96264.13;5048298;28;20040;-59
2022/12/09 00:19:39;;;;;;;16.20;8.10;;;;;;;-4.69;100.00;96261.41;5038438;28;20720;-59
2022/12/09 00:22:05;;;;;;;14.27;7.38;;;;;;;-4.59;100.00;96248.75;5027830;28;20056;-61
2022/12/09 00:24:31;;;;;;;14.90;8.50;;;;;;;-4.58;100.00;96247.75;5028488;28;20125;-60
2022/12/09 00:26:58;;;;;;;12.93;7.93;;;;;;;-4.50;100.00;96251.28;5028462;28;20042;-58
2022/12/09 00:29:25;;;;;;;14.48;8.43;;;;;;;-4.38;100.00;96251.63;5028969;28;20536;-61
2022/12/09 00:31:51;;;;;;;15.32;7.70;;;;;;;-4.56;100.00;96247.56;5046522;28;20076;-60
2022/12/09 00:34:18;;;;;;;15.35;8.60;;;;;;;-4.69;100.00;96242.91;5047906;28;20049;-59
2022/12/09 00:36:44;;;;;;;13.40;8.38;;;;;;;-4.69;100.00;96237.63;5048236;28;20047;-59
2022/12/09 00:39:11;;;;;;;16.08;8.80;;;;;;;-4.72;100.00;96238.81;5046204;28;20203;-60
2022/12/09 00:41:38;;;;;;;15.60;9.20;;;;;;;-4.76;100.00;96242.03;5045277;28;20107;-59
2022/12/09 00:44:05;;;;;;;11.82;7.30;;;;;;;-4.68;100.00;96239.28;5046129;28;20106;-60
2022/12/09 00:46:32;;;;;;;17.55;9.07;;;;;;;-4.76;100.00;96242.03;5039454;28;20029;-60
2022/12/09 00:48:59;;;;;;;15.93;8.27;;;;;;;-4.84;100.00;96248.19;5049011;28;20051;-60
2022/12/09 00:51:26;;;;;;;20.70;9.75;;;;;;;-4.89;100.00;96247.94;5045977;28;20040;-60
2022/12/09 00:53:54;;;;;;;18.48;8.55;;;;;;;-4.86;100.00;96248.38;5048066;28;20527;-59
2022/12/09 00:56:23;;;;;;;13.65;8.00;;;;;;;-4.87;100.00;96249.38;5047517;28;20587;-59
2022/12/09 00:58:49;;;;;;;12.20;7.65;;;;;;;-4.81;100.00;96242.56;5044436;28;20057;-60
2022/12/09 01:01:16;;;;;;;14.35;7.70;;;;;;;-4.84;100.00;96245.56;5030906;28;20049;-60
2022/12/09 01:03:43;;;;;;;16.80;9.43;;;;;;;-4.91;100.00;96239.38;5027655;28;20057;-58
2022/12/09 01:06:13;;;;;;;16.15;8.13;;;;;;;-4.93;100.00;96247.47;5027812;28;20046;-60
2022/12/09 01:08:39;;;;;;;17.02;9.57;;;;;;;-4.94;100.00;96251.09;5026369;28;20050;-59
2022/12/09 01:11:11;;;;;;;17.20;8.95;;;;;;;-4.85;100.00;96251.84;5061368;28;20155;-59
2022/12/09 01:13:38;;;;;;;16.30;8.52;;;;;;;-4.85;100.00;96254.47;5067671;28;20106;-59
2022/12/09 01:16:12;;;;;;;15.80;9.30;;;;;;;-5.07;100.00;96250.91;5065507;28;20086;-60
2022/12/09 01:18:39;;;;;;;16.23;8.88;;;;;;;-5.10;100.00;96262.66;5060610;28;20045;-58
2022/12/09 01:21:06;;;;;;;16.30;9.27;;;;;;;-5.22;100.00;96260.47;5026871;28;20128;-58
2022/12/09 01:23:32;;;;;;;13.60;7.93;;;;;;;-5.09;100.00;96262.47;5026345;28;20409;-59
2022/12/09 01:25:59;;;;;;;13.43;8.20;;;;;;;-5.02;100.00;96259.13;5026271;28;20087;-60
2022/12/09 01:28:25;;;;;;;12.60;7.00;;;;;;;-5.06;100.00;96249.94;5027241;28;20136;-59
2022/12/09 01:30:52;;;;;;;14.40;7.93;;;;;;;-5.20;100.00;96248.91;5027149;28;20056;-60
2022/12/09 01:33:19;;;;;;;14.25;8.02;;;;;;;-5.25;100.00;96262.63;5027063;28;20095;-60
2022/12/09 01:35:46;;;;;;;14.80;8.13;;;;;;;-5.31;100.00;96260.72;5029829;28;20091;-60
2022/12/09 01:38:14;;;;;;;10.50;6.45;;;;;;;-5.16;100.00;96247.56;5045508;28;20052;-58
2022/12/09 01:40:45;;;;;;;16.38;7.90;;;;;;;-5.01;100.00;96247.56;5045742;28;20041;-60
2022/12/09 01:43:17;;;;;;;12.85;6.95;;;;;;;-4.72;100.00;96243.31;5047421;28;20423;-59
2022/12/09 01:45:44;;;;;;;11.82;6.38;;;;;;;-4.72;100.00;96245.94;5046533;28;20760;-60
2022/12/09 01:48:13;;;;;;;13.00;7.20;;;;;;;-4.80;100.00;96246.84;5047159;28;20045;-59
2022/12/09 01:50:57;;;;;;;13.07;7.35;;;;;;;-4.94;100.00;96240.53;5025125;28;20041;-60
2022/12/09 01:53:29;;;;;;;11.90;6.40;;;;;;;-4.90;100.00;96236.53;5027040;28;20042;-60
2022/12/09 01:55:59;;;;;;;11.43;6.63;;;;;;;-4.97;100.00;96225.88;5025848;28;20037;-59
2022/12/09 01:58:27;;;;;;;13.18;7.15;;;;;;;-4.88;100.00;96224.00;5025454;28;20053;-59
2022/12/09 02:00:54;;;;;;;13.02;7.32;;;;;;;-4.88;100.00;96221.34;5024540;28;20064;-59
2022/12/09 02:03:21;;;;;;;17.45;8.00;;;;;;;-5.13;100.00;96210.22;5024962;28;20501;-59
2022/12/09 02:05:48;;;;;;;15.05;8.38;;;;;;;-5.45;100.00;96210.38;5025997;28;20041;-57
2022/12/09 02:08:17;;;;;;;13.00;7.55;;;;;;;-5.82;100.00;96210.16;5036148;28;20045;-59
2022/12/09 02:11:22;;;;;;;11.23;6.78;;;;;;;-5.77;100.00;96202.56;5040507;28;20061;-59
2022/12/09 02:14:02;;;;;;;16.85;7.65;;;;;;;-5.90;100.00;96202.34;5047677;28;20785;-59
2022/12/09 02:16:43;;;;;;;13.40;7.35;;;;;;;-5.87;100.00;96200.19;5059551;28;20071;-58
2022/12/09 02:19:51;;;;;;;11.68;6.53;;;;;;;-5.84;100.00;96198.16;5046128;28;20048;-59
2022/12/09 02:22:30;;;;;;;13.13;7.40;;;;;;;-5.74;100.00;96199.56;5044837;28;20064;-60
2022/12/09 02:25:03;;;;;;;10.65;7.50;;;;;;;-5.70;100.00;96186.84;5066844;28;20044;-57
2022/12/09 02:27:36;;;;;;;11.45;7.85;;;;;;;-5.79;100.00;96183.47;5055997;28;20052;-56
2022/12/09 02:30:21;;;;;;;16.08;8.35;;;;;;;-5.74;100.00;96193.50;5044754;28;20041;-58
2022/12/09 02:33:25;;;;;;;16.00;7.90;;;;;;;-5.74;100.00;96190.84;5044578;28;20132;-57
2022/12/09 02:36:15;;;;;;;14.45;6.88;;;;;;;-5.71;100.00;96173.84;5040198;28;20546;-58
2022/12/09 02:38:44;;;;;;;;;;;;;;;-5.67;100.00;96169.84;5039878;28;20037;-58
2022/12/09 02:41:18;;;;;;;10.43;6.35;;;;;;;-5.81;100.00;96179.38;5044538;28;19920;-59
2022/12/09 02:43:52;;;;;;;12.57;7.15;;;;;;;-5.97;100.00;96175.06;5044810;28;20528;-60
2022/12/09 02:46:26;;;;;;;13.75;7.68;;;;;;;-5.82;100.00;96172.47;5044701;28;20174;-59
2022/12/09 02:48:57;;;;;;;16.38;7.15;;;;;;;-5.98;100.00;96165.50;5040231;28;20045;-59
2022/12/09 02:51:28;;;;;;;13.27;6.75;;;;;;;-6.24;100.00;96172.00;5026147;28;20583;-58
2022/12/09 02:54:06;;;;;;;16.10;6.93;;;;;;;-6.22;100.00;96165.53;5029410;28;20042;-59
2022/12/09 02:56:34;;;;;;;14.30;7.95;;;;;;;-6.19;100.00;96159.91;5028815;28;20064;-60
2022/12/09 02:59:01;;;;;;;13.65;7.10;;;;;;;-6.25;100.00;96162.41;5043248;28;20045;-59
2022/12/09 03:01:42;;;;;;;13.63;6.95;;;;;;;-6.18;100.00;96153.66;5048282;28;20053;-60
2022/12/09 03:04:15;;;;;;;10.00;5.53;;;;;;;-6.05;100.00;96160.16;5049734;28;20397;-59
2022/12/09 03:06:49;;;;;;;14.35;6.70;;;;;;;-5.98;100.00;96153.13;5046124;28;20651;-59
2022/12/09 03:09:25;;;;;;;13.52;6.90;;;;;;;-6.04;100.00;96148.63;5033212;28;20762;-60
2022/12/09 03:11:54;;;;;;;9.38;6.10;;;;;;;-5.93;100.00;96155.25;5069675;28;20040;-60
2022/12/09 03:14:29;;;;;;;15.45;6.50;;;;;;;-5.88;100.00;96148.44;5069755;28;20045;-60
2022/12/09 03:17:16;;;;;;;13.98;7.18;;;;;;;-5.89;100.00;96146.78;5070091;28;20124;-58
2022/12/09 03:19:47;;;;;;;11.30;6.13;;;;;;;-5.87;100.00;96136.06;5058656;28;20099;-60
2022/12/09 03:22:17;;;;;;;13.73;6.53;;;;;;;-5.67;100.00;96133.75;5049315;28;20088;-58
2022/12/09 03:24:53;;;;;;;11.40;7.43;;;;;;;-5.87;100.00;96134.25;5049827;28;20493;-59
2022/12/09 03:27:27;;;;;;;12.05;6.47;;;;;;;-5.88;100.00;96131.81;5049399;28;20393;-60
2022/12/09 03:29:55;;;;;;;10.93;5.10;;;;;;;-6.01;100.00;96135.06;5049787;28;20037;-60
2022/12/09 03:32:25;;;;;;;11.13;6.45;;;;;;;-6.00;100.00;96126.94;5048773;28;20045;-60
2022/12/09 03:35:00;;;;;;;15.25;6.40;;;;;;;-6.00;100.00;96134.06;5049334;28;20128;-59
2022/12/09 03:37:27;;;;;;;11.10;5.63;;;;;;;-5.90;100.00;96131.19;5038765;28;20048;-59
2022/12/09 03:39:57;;;;;;;11.88;6.75;;;;;;;-5.89;100.00;96130.97;5029405;28;20045;-59
2022/12/09 03:42:35;;;;;;;8.93;5.38;;;;;;;-6.00;100.00;96131.41;5027749;28;20520;-60
2022/12/09 03:45:06;;;;;;;13.13;5.65;;;;;;;-6.07;100.00;96127.88;5027306;28;20041;-60
2022/12/09 03:47:33;;;;;;;13.37;6.73;;;;;;;-6.06;100.00;96126.88;5029391;28;20038;-59
2022/12/09 03:49:59;;;;;;;13.00;6.38;;;;;;;-6.03;100.00;96108.88;5043659;28;20287;-58
2022/12/09 03:52:48;;;;;;;12.15;6.00;;;;;;;-5.94;100.00;96119.34;5048994;28;20171;-60
2022/12/09 03:55:36;;;;;;;11.95;6.43;;;;;;;-5.96;100.00;96118.69;5048694;28;20056;-59
2022/12/09 03:58:05;;;;;;;10.93;6.45;;;;;;;-6.00;100.00;96124.31;5049197;28;20071;-57
2022/12/09 04:00:36;;;;;;;14.00;6.43;;;;;;;-6.01;100.00;96124.50;5048656;28;20221;-58
2022/12/09 04:03:05;;;;;;;13.82;6.45;;;;;;;-6.01;100.00;96129.78;5047819;28;20075;-58
2022/12/09 04:05:32;;;;;;;10.88;5.32;;;;;;;-5.98;100.00;96124.13;5049228;28;20040;-59
2022/12/09 04:07:59;;;;;;;9.30;5.18;;;;;;;-5.74;100.00;96119.66;5048455;28;20049;-61
2022/12/09 04:10:26;;;;;;;12.45;6.47;;;;;;;-5.82;100.00;96122.38;5059258;28;20593;-59
2022/12/09 04:12:53;;;;;;;11.75;6.57;;;;;;;-5.93;100.00;96121.78;5068514;28;20070;-58
2022/12/09 04:15:19;;;;;;;12.10;6.55;;;;;;;-5.95;100.00;96118.53;5068703;28;20071;-59
2022/12/09 04:17:46;;;;;;;9.63;6.18;;;;;;;-6.01;100.00;96120.03;5068830;28;20579;-58
2022/12/09 04:20:13;;;;;;;9.80;6.53;;;;;;;-6.00;100.00;96115.59;5052821;28;20119;-60
2022/12/09 04:22:40;;;;;;;14.23;7.28;;;;;;;-6.05;100.00;96118.78;5048645;28;20048;-60
2022/12/09 04:25:08;;;;;;;13.75;7.35;;;;;;;-6.20;100.00;96115.31;5046978;28;20065;-60
2022/12/09 04:27:34;;;;;;;13.30;6.82;;;;;;;-6.20;100.00;96110.84;5048395;28;20051;-59
2022/12/09 04:30:01;;;;;;;10.85;6.80;;;;;;;-6.20;100.00;96105.56;5047008;28;20524;-60
2022/12/09 04:32:29;;;;;;;13.68;6.72;;;;;;;-6.08;100.00;96094.63;5045788;28;20074;-60
2022/12/09 04:34:56;;;;;;;11.48;6.63;;;;;;;-5.98;100.00;96081.16;5048084;28;20056;-62
2022/12/09 04:37:22;;;;;;;12.88;6.85;;;;;;;-6.09;100.00;96085.09;5038147;28;20049;-60
2022/12/09 04:39:49;;;;;;;11.75;6.78;;;;;;;-5.98;100.00;96070.63;5028510;28;20635;-60
2022/12/09 04:42:15;;;;;;;15.82;7.95;;;;;;;-5.86;100.00;96079.72;5027750;28;20480;-63
2022/12/09 04:44:42;;;;;;;15.55;7.50;;;;;;;-5.94;100.00;96070.06;5027823;28;20257;-59
2022/12/09 04:47:08;;;;;;;17.52;7.93;;;;;;;-6.07;100.00;96069.91;5028306;28;20561;-59
2022/12/09 04:49:36;;;;;;;14.73;8.75;;;;;;;-6.19;100.00;96078.22;5039308;28;20115;-59
2022/12/09 04:52:02;;;;;;;14.13;7.43;;;;;;;-6.20;100.00;96063.41;5047890;28;20041;-59
2022/12/09 04:54:29;;;;;;;13.48;6.97;;;;;;;-6.17;100.00;96060.44;5044453;28;20045;-59
2022/12/09 04:56:55;;;;;;;16.05;8.52;;;;;;;-6.02;100.00;96056.97;5044458;28;20492;-58
2022/12/09 04:59:22;;;;;;;14.70;6.63;;;;;;;-6.06;100.00;96056.53;5047737;28;20041;-59
2022/12/09 05:01:49;;;;;;;16.60;7.47;;;;;;;-5.93;100.00;96058.50;5046891;28;20041;-60
2022/12/09 05:04:15;;;;;;;14.15;9.05;;;;;;;-6.02;100.00;96055.16;5047772;28;20045;-59
2022/12/09 05:06:42;;;;;;;14.05;8.20;;;;;;;-5.98;100.00;96046.91;5044149;28;20457;-59
2022/12/09 05:09:11;;;;;;;14.45;7.43;;;;;;;-5.94;100.00;96053.44;5048160;28;20045;-60
2022/12/09 05:11:39;;;;;;;14.82;8.07;;;;;;;-5.81;100.00;96047.53;5066918;28;20056;-60
2022/12/09 05:14:06;;;;;;;13.50;7.80;;;;;;;-5.88;100.00;96042.16;5067593;28;20051;-57
2022/12/09 05:16:33;;;;;;;16.83;7.90;;;;;;;-5.69;100.00;96035.53;5067566;28;20127;-59
2022/12/09 05:19:00;;;;;;;13.50;7.40;;;;;;;-5.63;100.00;96047.97;5061775;28;20424;-59
2022/12/09 05:21:27;;;;;;;14.18;7.90;;;;;;;-5.70;100.00;96035.72;5046936;28;20532;-59
2022/12/09 05:23:54;;;;;;;16.00;7.95;;;;;;;-5.67;100.00;96036.19;5047376;28;20532;-59
2022/12/09 05:26:21;;;;;;;15.57;8.80;;;;;;;-5.71;100.00;96032.28;5047313;28;20488;-59
2022/12/09 05:28:50;;;;;;;14.10;7.20;;;;;;;-5.72;100.00;96038.53;5046268;28;20079;-59
2022/12/09 05:31:19;;;;;;;16.40;7.88;;;;;;;-5.68;100.00;96034.53;5046755;28;20049;-58
2022/12/09 05:33:47;;;;;;;15.77;7.07;;;;;;;-5.64;100.00;96038.44;5046954;28;20536;-58
2022/12/09 05:36:17;;;;;;;10.27;6.07;;;;;;;-5.36;100.00;96035.16;5046362;28;20044;-59
2022/12/09 05:38:44;;;;;;;14.95;7.53;;;;;;;-5.38;100.00;96036.34;5027536;28;20501;-60
2022/12/09 05:41:11;;;;;;;12.25;6.60;;;;;;;-5.35;100.00;96028.88;5025916;28;20037;-59
2022/12/09 05:43:39;;;;;;;15.02;7.75;;;;;;;-5.32;100.00;96024.25;5027434;28;20041;-59
2022/12/09 05:46:06;;;;;;;14.55;7.78;;;;;;;-5.45;100.00;96022.25;5027288;28;20400;-59
2022/12/09 05:48:33;;;;;;;15.48;7.50;;;;;;;-5.53;100.00;96021.34;5029866;28;20130;-59
2022/12/09 05:51:13;;;;;;;13.45;6.70;;;;;;;-5.60;100.00;96020.47;5046946;28;20943;-58
2022/12/09 05:53:39;;;;;;;12.75;6.75;;;;;;;-5.65;100.00;96018.34;5047106;28;20065;-59
2022/12/09 05:56:06;;;;;;;15.95;7.40;;;;;;;-5.67;100.00;96025.66;5047077;28;20120;-60
2022/12/09 05:58:33;;;;;;;12.75;7.40;;;;;;;-5.75;100.00;96015.97;5046961;28;20128;-58
2022/12/09 06:01:07;;;;;;;13.48;7.57;;;;;;;-5.84;100.00;96013.63;5045844;28;20049;-60
2022/12/09 06:03:35;;;;;;;11.57;6.97;;;;;;;-5.89;100.00;96014.97;5047135;28;20536;-60
2022/12/09 06:06:08;;;;;;;15.70;8.18;;;;;;;-5.95;100.00;96009.63;5046592;28;20048;-60
2022/12/09 06:08:35;;;;;;;16.42;7.85;;;;;;;-5.92;100.00;96015.38;5046959;28;20041;-60
2022/12/09 06:11:03;;;;;;;15.57;8.02;;;;;;;-5.93;100.00;96018.97;5061952;28;20063;-60
2022/12/09 06:13:31;;;;;;;15.30;8.35;;;;;;;-5.98;100.00;96004.72;5066850;28;20048;-60
2022/12/09 06:16:02;;;;;;;16.38;8.43;;;;;;;-5.99;100.00;96001.25;5066300;28;20044;-58
2022/12/09 06:18:30;;;;;;;16.20;8.70;;;;;;;-5.83;100.00;96010.00;5065556;28;20083;-58
2022/12/09 06:20:57;;;;;;;16.88;9.30;;;;;;;-5.82;100.00;96011.63;5046244;28;20056;-60
2022/12/09 06:23:24;;;;;;;18.05;9.45;;;;;;;-5.80;100.00;96004.34;5045948;28;20495;-58
2022/12/09 06:25:50;;;;;;;15.38;9.00;;;;;;;-5.91;100.00;96001.19;5045514;28;20053;-60
2022/12/09 06:28:18;;;;;;;17.92;9.93;;;;;;;-5.76;100.00;96003.81;5045891;28;20044;-60
2022/12/09 06:30:45;;;;;;;14.57;8.68;;;;;;;-5.80;100.00;96004.34;5046059;28;20079;-60
2022/12/09 06:33:11;;;;;;;15.43;8.70;;;;;;;-5.81;100.00;95997.44;5046008;28;20681;-59
2022/12/09 06:36:02;;;;;;;18.20;9.25;;;;;;;-5.80;100.00;95996.44;5045770;28;20176;-56
2022/12/09 06:38:28;;;;;;;18.50;9.87;;;;;;;-5.79;100.00;95990.19;5027626;28;20464;-52
2022/12/09 06:40:55;;;;;;;13.40;7.13;;;;;;;-5.85;100.00;95997.00;5025636;28;20046;-53
2022/12/09 06:43:22;;;;;;;14.90;8.60;;;;;;;-5.87;100.00;96002.44;5026389;28;20065;-54
2022/12/09 06:45:49;;;;;;;15.95;9.10;;;;;;;-5.84;100.00;96009.19;5039511;28;20130;-53
2022/12/09 06:48:15;;;;;;;16.27;8.98;;;;;;;-5.70;100.00;96010.19;5045132;28;20048;-51
2022/12/09 06:50:43;;;;;;;14.60;8.23;;;;;;;-5.76;100.00;96001.16;5037456;28;20107;-54
2022/12/09 06:53:09;;;;;;;15.73;9.60;;;;;;;-5.71;100.00;96008.56;5047792;28;20057;-55
2022/12/09 06:55:36;;;;;;;17.13;9.82;;;;;;;-5.82;100.00;95999.25;5039699;28;20128;-57
2022/12/09 06:58:02;;;;;;;17.48;9.02;;;;;;;-5.78;100.00;96005.00;5034657;28;20068;-57
2022/12/09 07:00:30;;;;;;;16.25;8.52;;;;;;;-5.69;100.00;96003.91;5031736;28;20049;-56
2022/12/09 07:02:58;;;;;;;15.20;9.43;;;;;;;-5.70;100.00;96004.06;5041108;28;20051;-58
2022/12/09 07:05:25;;;;;;;18.85;10.48;;;;;;;-5.67;100.00;95998.44;5026876;28;20865;-55
2022/12/09 07:07:52;;;;;;;17.95;9.77;;;;;;;-5.78;100.00;96002.34;5029984;28;20125;-56
2022/12/09 07:10:20;;;;;;;15.23;9.32;;;;;;;-5.71;100.00;96008.56;5043350;28;20115;-57
2022/12/09 07:12:47;;;;;;;26.25;16.45;;;;;;;-5.66;100.00;96005.34;5035156;28;20045;-56
2022/12/09 07:15:13;;;;;;;23.92;14.57;;;;;;;-5.58;100.00;95994.69;5035385;28;20041;-57
2022/12/09 07:17:41;;;;;;;30.65;12.73;;;;;;;-5.55;100.00;95985.59;5032714;28;20072;-57
2022/12/09 07:20:08;;;;;;;18.17;11.10;;;;;;;-5.39;100.00;95995.13;5033510;28;20511;-55
2022/12/09 07:22:35;;;;;;;20.38;10.00;;;;;;;-5.33;100.00;95996.19;5037190;28;20053;-58
2022/12/09 07:25:03;;;;;;;15.45;8.85;;;;;;;-5.19;100.00;95994.53;5028669;28;20148;-58
2022/12/09 07:27:30;;;;;;;18.40;9.30;;;;;;;-5.20;100.00;95988.44;5038421;28;20051;-58
2022/12/09 07:29:57;;;;;;;16.25;10.32;;;;;;;-5.28;100.00;95985.91;5043869;28;20045;-56
2022/12/09 07:32:23;;;;;;;24.48;15.95;;;;;;;-5.29;100.00;95990.38;5042112;28;20076;-57
2022/12/09 07:34:50;;;;;;;18.27;10.82;;;;;;;-5.30;100.00;95991.38;5028976;28;20041;-58
2022/12/09 07:37:17;;;;;;;18.58;10.48;;;;;;;-5.28;100.00;95988.53;5042310;28;20041;-58
2022/12/09 07:39:44;;;;;;;20.27;11.35;;;;;;;-5.20;100.00;95983.16;5044330;28;20041;-55
2022/12/09 07:42:10;;;;;;;17.83;10.68;;;;;;;-5.19;100.00;95992.72;5045304;28;20052;-58
2022/12/09 07:44:48;;;;;;;19.88;10.75;;;;;;;-5.08;100.00;95991.41;5044750;28;20056;-55
2022/12/09 07:47:14;;;;;;;23.10;13.95;;;;;;;-5.16;100.00;95987.06;5046987;28;20055;-57
2022/12/09 07:49:41;;;;;;;19.98;10.90;;;;;;;-5.07;100.00;95995.69;5036608;28;20053;-58
2022/12/09 07:52:07;;;;;;;19.52;11.40;;;;;;;-4.90;100.00;95995.44;5044915;28;20041;-55
2022/12/09 07:54:34;;;;;;;18.38;12.32;;;;;;;-4.83;100.00;95994.50;5047189;28;20053;-58
2022/12/09 07:57:01;;;;;;;19.50;11.63;;;;;;;-4.70;100.00;95991.19;5046862;28;20036;-55
2022/12/09 07:59:27;;;;;;;33.03;19.25;;;;;;;-4.55;100.00;95992.94;5045380;28;20043;-54
2022/12/09 08:01:54;;;;;;;40.05;23.00;;;;;;;-4.41;100.00;95988.56;5047750;28;20517;-54
2022/12/09 08:04:26;;;;;;;53.63;31.10;;;;;;;-4.33;100.00;95984.97;5048744;28;20041;-53
2022/12/09 08:06:53;;;;;;;19.75;12.55;;;;;;;-4.29;100.00;95988.84;5049187;28;20041;-55
2022/12/09 08:09:20;;;;;;;23.23;14.32;;;;;;;-4.22;100.00;95988.91;5050750;28;20075;-54
2022/12/09 08:11:47;;;;;;;24.90;14.60;;;;;;;-4.24;100.00;95988.28;5068408;28;20040;-53
2022/12/09 08:14:14;;;;;;;24.48;17.90;;;;;;;-4.20;100.00;95987.69;5068900;28;20045;-52
2022/12/09 08:16:42;;;;;;;22.38;15.73;;;;;;;-4.15;100.00;95987.13;5068440;28;20109;-54
2022/12/09 08:19:10;;;;;;;20.52;13.18;;;;;;;-4.07;100.00;95986.16;5062456;28;20073;-56
2022/12/09 08:21:38;;;;;;;20.05;12.77;;;;;;;-3.96;100.00;95982.16;5047761;28;20119;-57
2022/12/09 08:24:06;;;;;;;20.83;13.65;;;;;;;-3.86;100.00;95982.66;5048585;28;20126;-58
2022/12/09 08:26:35;;;;;;;21.75;14.23;;;;;;;-3.73;100.00;95975.81;5048586;28;20581;-56
2022/12/09 08:29:06;;;;;;;20.88;12.95;;;;;;;-3.65;100.00;95975.59;5047875;28;20052;-58
2022/12/09 08:31:33;;;;;;;23.45;12.20;;;;;;;-3.42;100.00;95977.16;5045493;28;20074;-57
2022/12/09 08:34:07;;;;;;;20.65;13.20;;;;;;;-3.38;100.00;95972.28;5039960;28;20067;-58
2022/12/09 08:36:35;;;;;;;22.27;13.00;;;;;;;-3.23;100.00;95962.34;5032588;28;20057;-57
2022/12/09 08:39:02;;;;;;;20.45;13.02;;;;;;;-3.08;100.00;95970.13;5045397;28;20049;-57
2022/12/09 08:41:36;;;;;;;21.25;11.90;;;;;;;-2.94;100.00;95963.03;5039864;28;20577;-58
2022/12/09 08:44:14;;;;;;;22.30;12.38;;;;;;;-2.88;100.00;95956.09;5029116;28;20137;-58
2022/12/09 08:46:43;;;;;;;20.63;12.13;;;;;;;-2.81;100.00;95956.09;5035196;28;20055;-58
2022/12/09 08:49:10;;;;;;;19.70;11.38;;;;;;;-2.69;100.00;95959.00;5040512;28;20041;-58
2022/12/09 08:51:38;;;;;;;20.92;12.73;;;;;;;-2.58;100.00;95950.41;5045225;28;20053;-58
2022/12/09 08:54:05;;;;;;;18.52;12.85;;;;;;;-2.50;100.00;95957.38;5046357;28;20470;-59
2022/12/09 08:56:32;;;;;;;22.13;10.77;;;;;;;-2.42;100.00;95951.88;5046049;28;20571;-58
2022/12/09 08:59:00;;;;;;;19.08;9.90;;;;;;;-2.33;100.00;95956.97;5045449;28;20132;-59
2022/12/09 09:01:31;;;;;;;19.67;11.50;;;;;;;-2.35;99.15;95952.66;5038163;28;20057;-59
2022/12/09 09:04:14;;;;;;;21.08;11.50;;;;;;;-2.31;99.34;95945.13;5040553;28;20048;-58
2022/12/09 09:06:44;;;;;;;19.83;11.50;;;;;;;-2.29;99.05;95943.06;5038469;28;20098;-59
2022/12/09 09:09:12;;;;;;;20.45;12.25;;;;;;;-2.17;98.37;95943.28;5039846;28;20516;-58
2022/12/09 09:11:40;;;;;;;23.05;12.77;;;;;;;-2.27;99.04;95938.41;5045507;28;20083;-59
2022/12/09 09:14:10;;;;;;;23.73;13.68;;;;;;;-2.31;100.00;95939.81;5045631;28;20053;-59
2022/12/09 09:16:40;;;;;;;25.40;13.48;;;;;;;-2.29;100.00;95945.72;5045300;28;20049;-57
2022/12/09 09:19:12;;;;;;;18.92;11.13;;;;;;;-2.15;100.00;95933.28;5046476;28;20048;-58
2022/12/09 09:21:38;;;;;;;;;;;;;;;-2.14;98.75;95929.59;5054941;28;20701;-58
2022/12/09 09:24:14;;;;;;;19.63;11.02;;;;;;;-2.07;99.11;95934.09;5049176;28;19952;-57
2022/12/09 09:26:42;;;;;;;16.40;10.02;;;;;;;-2.04;97.03;95936.31;5051092;28;20049;-58
2022/12/09 09:29:11;;;;;;;18.25;9.35;;;;;;;-2.00;97.41;95941.00;5041773;28;20052;-59
2022/12/09 09:31:38;;;;;;;16.38;9.52;;;;;;;-2.11;98.02;95936.31;5045251;28;20052;-57
2022/12/09 09:34:05;;;;;;;19.88;11.18;;;;;;;-2.16;100.00;95936.13;5045594;28;20053;-56
2022/12/09 09:36:33;;;;;;;16.55;10.85;;;;;;;-2.11;100.00;95933.66;5046332;28;20098;-55
2022/12/09 09:39:00;;;;;;;21.60;11.95;;;;;;;-1.81;100.00;95933.19;5041637;28;20399;-56
2022/12/09 09:41:51;;;;;;;23.23;11.48;;;;;;;-1.90;100.00;95934.44;5064940;28;20079;-55
2022/12/09 09:44:35;;;;;;;19.40;11.27;;;;;;;-1.85;100.00;95926.66;5054113;28;20065;-59
2022/12/09 09:47:15;;;;;;;18.58;10.38;;;;;;;-1.72;97.93;95926.66;5032457;28;20059;-57
2022/12/09 09:49:52;;;;;;;15.23;9.27;;;;;;;-1.67;97.71;95919.91;5045702;28;20083;-57
2022/12/09 09:52:25;;;;;;;17.15;9.65;;;;;;;-1.70;96.85;95921.94;5044417;28;20044;-56
2022/12/09 09:54:53;;;;;;;20.25;9.68;;;;;;;-1.78;97.20;95921.34;5050627;28;20036;-57
2022/12/09 09:57:46;;;;;;;15.48;9.80;;;;;;;-1.73;96.43;95913.59;5064649;28;20568;-54
2022/12/09 10:00:24;;;;;;;22.90;11.02;;;;;;;-1.83;96.59;95912.16;5033581;28;20464;-56
2022/12/09 10:03:13;;;;;;;19.25;11.02;;;;;;;-1.74;96.44;95907.47;5044195;28;20072;-57
2022/12/09 10:05:52;;;;;;;19.30;10.80;;;;;;;-1.63;96.37;95907.81;5039269;28;20401;-58
2022/12/09 10:08:26;;;;;;;17.85;10.07;;;;;;;-1.55;95.94;95909.44;5044754;28;20120;-56
2022/12/09 10:11:09;;;;;;;20.52;10.45;;;;;;;-1.57;95.43;95904.34;5057497;28;20397;-55
2022/12/09 10:13:50;;;;;;;17.33;9.73;;;;;;;-1.54;95.26;95903.91;5045224;28;20048;-53
2022/12/09 10:16:19;;;;;;;15.05;9.40;;;;;;;-1.50;95.45;95899.00;5025803;28;20045;-58
2022/12/09 10:18:58;;;;;;;16.92;9.60;;;;;;;-1.35;94.72;95906.69;5042728;28;20068;-55
2022/12/09 10:21:39;;;;;;;19.95;9.88;;;;;;;-1.36;95.04;95903.19;5052116;28;20041;-57
2022/12/09 10:24:17;;;;;;;17.95;9.40;;;;;;;-1.26;95.37;95899.28;5044496;28;20124;-58
2022/12/09 10:26:53;;;;;;;19.58;9.85;;;;;;;-1.14;96.44;95897.56;5057458;28;20131;-58
2022/12/09 10:29:34;;;;;;;17.98;9.82;;;;;;;-0.96;95.36;95899.50;5052925;28;20071;-56
2022/12/09 10:32:01;;;;;;;15.23;8.30;;;;;;;-1.00;93.27;95895.63;5046352;28;20127;-52
2022/12/09 10:34:28;;;;;;;20.85;9.70;;;;;;;-0.80;93.31;95894.69;5044005;28;20056;-57
2022/12/09 10:36:56;;;;;;;19.75;10.70;;;;;;;-0.82;92.31;95894.91;5040040;28;20523;-55
2022/12/09 10:39:22;;;;;;;15.13;9.38;;;;;;;-0.58;92.54;95891.66;5044191;28;20041;-55
2022/12/09 10:44:38;;;;;;;15.98;8.48;;;;;;;-0.57;90.26;95883.47;5043555;28;20518;-54
2022/12/09 10:47:33;;;;;;;14.63;8.60;;;;;;;-0.51;89.40;95881.78;5038965;28;20719;-51
2022/12/09 10:50:00;;;;;;;14.95;8.35;;;;;;;-0.69;89.48;95874.56;5044412;28;20060;-55
2022/12/09 10:52:34;;;;;;;16.88;9.15;;;;;;;-0.84;91.36;95865.09;5043099;28;20075;-54
2022/12/09 10:55:01;;;;;;;16.13;10.00;;;;;;;-0.87;90.62;95872.66;5056775;28;20056;-54
2022/12/09 10:57:28;;;;;;;18.30;9.90;;;;;;;-0.94;91.85;95872.72;5057459;28;20087;-50
2022/12/09 11:00:18;;;;;;;16.27;8.65;;;;;;;-0.89;91.82;95872.06;5057231;28;20045;-53
2022/12/09 11:02:50;;;;;;;15.00;8.95;;;;;;;-0.81;91.28;95874.47;5043690;28;20041;-53
2022/12/09 11:05:26;;;;;;;17.67;9.27;;;;;;;-0.77;90.55;95872.19;5040740;28;20592;-53
2022/12/09 11:07:56;;;;;;;17.33;10.48;;;;;;;-0.73;91.89;95865.41;5043590;28;20458;-54
2022/12/09 11:10:26;;;;;;;14.52;8.70;;;;;;;-0.61;90.50;95876.13;5054188;28;20430;-55
2022/12/09 11:13:04;;;;;;;14.20;9.20;;;;;;;-0.60;89.99;95867.13;5032089;28;20538;-55
2022/12/09 11:15:42;;;;;;;16.08;9.07;;;;;;;-0.73;91.00;95866.22;5047353;28;20060;-55
2022/12/09 11:18:19;;;;;;;17.83;10.40;;;;;;;-0.81;91.26;95859.31;5047830;28;20534;-54
2022/12/09 11:20:58;;;;;;;15.88;8.57;;;;;;;-0.85;92.40;95854.66;5046629;28;20041;-54
2022/12/09 11:23:26;;;;;;;17.02;9.25;;;;;;;-0.71;91.87;95850.84;5047614;28;20573;-53
2022/12/09 11:25:56;;;;;;;16.00;9.52;;;;;;;-0.71;93.07;95852.69;5047855;28;20562;-54
2022/12/09 11:28:32;;;;;;;19.65;9.73;;;;;;;-0.68;92.07;95852.25;5060724;28;20499;-53
2022/12/09 11:31:01;;;;;;;23.80;12.45;;;;;;;-0.53;90.27;95858.06;5047399;28;20041;-53
2022/12/09 11:33:51;;;;;;;17.13;10.00;;;;;;;-0.71;91.79;95845.53;5047467;28;20045;-57